createdAt,value
2018-12-29T00:00:40.495Z,36.70
2018-12-29T00:02:46.235Z,40.60
2018-12-29T00:04:52.591Z,42.23
2018-12-29T00:07:17.481Z,46.27
2018-12-29T00:09:23.136Z,45.83
2018-12-29T00:11:41.878Z,50.20
2018-12-29T00:13:47.511Z,40.30
2018-12-29T00:15:53.885Z,49.63
2018-12-29T00:20:36.663Z,47.87
2018-12-29T00:22:42.734Z,46.80
2018-12-29T00:24:48.477Z,43.00
2018-12-29T00:26:54.277Z,63.93
2018-12-29T00:29:00.059Z,44.13
2018-12-29T00:31:05.790Z,50.53
2018-12-29T00:33:11.506Z,50.30
2018-12-29T00:35:17.421Z,49.37
2018-12-29T00:37:42.378Z,52.03
2018-12-29T00:39:48.618Z,46.47
2018-12-29T00:42:13.323Z,58.57
2018-12-29T00:44:30.304Z,42.63
2018-12-29T00:46:36.249Z,42.87
2018-12-29T00:48:45.070Z,51.60
2018-12-29T00:51:10.222Z,43.43
2018-12-29T00:53:15.865Z,55.93
2018-12-29T00:55:21.909Z,67.30
2018-12-29T00:57:29.589Z,53.17
2018-12-29T00:59:35.762Z,47.23
2018-12-29T01:01:41.508Z,59.50
2018-12-29T01:03:48.339Z,46.97
2018-12-29T01:05:54.115Z,50.53
2018-12-29T01:08:00.323Z,50.07
2018-12-29T01:10:07.027Z,51.53
2018-12-29T01:12:14.866Z,50.70
2018-12-29T01:14:20.687Z,52.43
2018-12-29T01:16:26.802Z,52.97
2018-12-29T01:18:34.600Z,52.50
2018-12-29T01:20:40.275Z,46.57
2018-12-29T01:22:45.926Z,50.87
2018-12-29T01:25:10.701Z,51.17
2018-12-29T01:27:16.452Z,50.10
2018-12-29T01:29:42.162Z,54.50
2018-12-29T01:31:47.872Z,54.10
2018-12-29T01:34:13.042Z,43.50
2018-12-29T01:36:19.100Z,45.13
2018-12-29T01:38:25.078Z,46.83
2018-12-29T01:40:50.416Z,52.73
2018-12-29T01:42:56.209Z,49.80
2018-12-29T01:45:02.703Z,50.67
2018-12-29T01:47:08.908Z,55.57
2018-12-29T01:49:14.620Z,47.70
2018-12-29T01:51:20.322Z,49.37
2018-12-29T01:53:26.054Z,51.13
2018-12-29T01:55:31.754Z,52.77
2018-12-29T01:57:37.402Z,50.63
2018-12-29T01:59:43.205Z,47.83
2018-12-29T02:01:48.992Z,49.77
2018-12-29T02:03:54.761Z,48.20
2018-12-29T02:06:00.498Z,54.50
2018-12-29T02:08:06.223Z,53.37
2018-12-29T02:10:12.298Z,60.80
2018-12-29T02:12:17.973Z,47.57
2018-12-29T02:14:24.030Z,61.40
2018-12-29T02:16:29.717Z,42.43
2018-12-29T02:18:54.469Z,40.80
2018-12-29T02:21:19.450Z,49.17
2018-12-29T02:23:25.144Z,56.03
2018-12-29T02:25:30.871Z,48.13
2018-12-29T02:27:36.588Z,43.83
2018-12-29T02:29:42.418Z,48.67
2018-12-29T02:31:48.411Z,46.00
2018-12-29T02:36:19.309Z,42.60
2018-12-29T02:38:25.021Z,46.93
2018-12-29T02:40:30.969Z,49.57
2018-12-29T02:42:37.050Z,48.00
2018-12-29T02:44:42.681Z,54.83
2018-12-29T02:46:52.284Z,62.53
2018-12-29T02:49:17.282Z,52.40
2018-12-29T02:51:23.264Z,45.40
2018-12-29T02:53:47.969Z,63.80
2018-12-29T02:58:21.711Z,37.53
2018-12-29T03:00:46.418Z,51.03
2018-12-29T03:02:52.553Z,47.83
2018-12-29T03:04:58.474Z,45.83
2018-12-29T03:07:04.603Z,48.63
2018-12-29T03:09:10.306Z,46.07
2018-12-29T03:11:16.544Z,56.07
2018-12-29T03:13:22.319Z,47.63
2018-12-29T03:15:28.349Z,54.77
2018-12-29T03:17:34.259Z,47.37
2018-12-29T03:19:40.020Z,38.47
2018-12-29T03:21:47.503Z,43.70
2018-12-29T03:23:53.325Z,48.93
2018-12-29T03:25:59.247Z,42.33
2018-12-29T03:28:05.128Z,45.83
2018-12-29T03:30:10.908Z,47.40
2018-12-29T03:32:16.625Z,48.80
2018-12-29T03:34:22.753Z,45.80
2018-12-29T03:36:47.858Z,49.77
2018-12-29T03:38:53.600Z,41.20
2018-12-29T03:41:18.404Z,44.50
2018-12-29T03:43:24.156Z,45.40
2018-12-29T03:45:49.523Z,43.30
2018-12-29T03:47:55.835Z,41.40
2018-12-29T03:50:01.998Z,42.53
2018-12-29T03:52:07.755Z,48.93
2018-12-29T03:54:13.473Z,52.27
2018-12-29T03:56:19.331Z,55.73
2018-12-29T03:58:24.930Z,44.20
2018-12-29T04:00:49.691Z,42.23
2018-12-29T04:02:55.513Z,39.67
2018-12-29T04:05:01.389Z,39.40
2018-12-29T04:07:07.524Z,42.90
2018-12-29T04:09:49.920Z,37.90
2018-12-29T04:11:55.888Z,39.87
2018-12-29T04:14:02.212Z,48.47
2018-12-29T04:16:08.198Z,41.87
2018-12-29T04:18:13.794Z,38.90
2018-12-29T04:20:19.639Z,40.70
2018-12-29T04:22:25.977Z,42.67
2018-12-29T04:24:32.147Z,43.30
2018-12-29T04:26:37.811Z,43.73
2018-12-29T04:28:47.043Z,40.87
2018-12-29T04:30:52.713Z,39.83
2018-12-29T04:32:58.866Z,45.77
2018-12-29T04:35:04.996Z,37.00
2018-12-29T04:37:11.212Z,39.30
2018-12-29T04:39:17.286Z,47.57
2018-12-29T04:41:23.121Z,51.03
2018-12-29T04:43:29.031Z,40.23
2018-12-29T04:45:34.793Z,37.10
2018-12-29T04:47:40.741Z,42.47
2018-12-29T04:49:46.660Z,42.50
2018-12-29T04:51:52.374Z,44.70
2018-12-29T04:53:58.678Z,41.97
2018-12-29T04:56:23.425Z,41.57
2018-12-29T04:58:41.096Z,37.63
2018-12-29T05:00:47.216Z,37.53
2018-12-29T05:02:52.972Z,38.33
2018-12-29T05:04:58.732Z,41.97
2018-12-29T05:07:04.475Z,43.17
2018-12-29T05:09:10.390Z,45.70
2018-12-29T05:11:16.483Z,44.40
2018-12-29T05:13:22.227Z,36.20
2018-12-29T05:15:47.163Z,42.20
2018-12-29T05:18:04.963Z,42.97
2018-12-29T05:20:29.724Z,44.43
2018-12-29T05:22:35.615Z,42.03
2018-12-29T05:24:41.559Z,48.03
2018-12-29T05:26:47.613Z,39.83
2018-12-29T05:28:53.367Z,38.60
2018-12-29T05:30:58.974Z,46.40
2018-12-29T05:33:04.846Z,51.27
2018-12-29T05:35:10.526Z,43.03
2018-12-29T05:37:16.354Z,52.10
2018-12-29T05:39:22.257Z,37.40
2018-12-29T05:41:28.037Z,50.90
2018-12-29T05:43:33.767Z,45.73
2018-12-29T05:45:58.614Z,42.47
2018-12-29T05:48:04.416Z,45.73
2018-12-29T05:50:10.336Z,40.77
2018-12-29T05:52:16.182Z,41.20
2018-12-29T05:54:21.965Z,40.30
2018-12-29T05:56:27.686Z,45.90
2018-12-29T05:58:33.468Z,49.03
2018-12-29T06:00:39.194Z,44.33
2018-12-29T06:02:45.150Z,42.83
2018-12-29T06:04:51.022Z,42.23
2018-12-29T06:06:56.732Z,46.63
2018-12-29T06:09:04.168Z,50.13
2018-12-29T06:11:10.250Z,44.93
2018-12-29T06:13:15.925Z,39.47
2018-12-29T06:15:21.605Z,39.37
2018-12-29T06:17:46.377Z,47.00
2018-12-29T06:19:52.269Z,41.63
2018-12-29T06:21:57.929Z,55.87
2018-12-29T06:24:03.657Z,45.80
2018-12-29T06:26:09.333Z,36.00
2018-12-29T06:28:15.107Z,38.47
2018-12-29T06:30:20.787Z,37.47
2018-12-29T06:32:26.546Z,42.77
2018-12-29T06:34:32.370Z,47.57
2018-12-29T06:36:38.648Z,49.37
2018-12-29T06:38:44.429Z,52.33
2018-12-29T06:40:50.225Z,47.80
2018-12-29T06:42:55.916Z,39.90
2018-12-29T06:45:01.651Z,47.03
2018-12-29T06:47:07.438Z,41.00
2018-12-29T06:49:13.247Z,34.93
2018-12-29T06:51:18.935Z,38.90
2018-12-29T06:53:24.893Z,42.70
2018-12-29T06:55:31.582Z,37.27
2018-12-29T06:57:37.524Z,38.97
2018-12-29T06:59:43.143Z,44.87
2018-12-29T07:01:48.813Z,55.70
2018-12-29T07:03:55.067Z,46.57
2018-12-29T07:06:21.263Z,44.10
2018-12-29T07:08:26.948Z,53.20
2018-12-29T07:10:32.587Z,44.27
2018-12-29T07:13:14.964Z,55.93
2018-12-29T07:15:21.167Z,46.33
2018-12-29T07:17:28.428Z,48.83
2018-12-29T07:19:34.279Z,32.90
2018-12-29T07:21:41.100Z,45.43
2018-12-29T07:23:47.220Z,49.80
2018-12-29T07:25:53.013Z,50.47
2018-12-29T07:27:58.723Z,41.57
2018-12-29T07:30:04.993Z,54.33
2018-12-29T07:32:10.784Z,48.30
2018-12-29T07:34:16.825Z,46.43
2018-12-29T07:36:24.951Z,40.60
2018-12-29T07:38:30.614Z,46.43
2018-12-29T07:40:36.238Z,48.43
2018-12-29T07:42:42.025Z,40.90
2018-12-29T07:44:47.649Z,44.33
2018-12-29T07:46:53.404Z,47.77
2018-12-29T07:48:59.095Z,51.80
2018-12-29T07:51:04.924Z,43.87
2018-12-29T07:53:10.646Z,45.43
2018-12-29T07:55:16.361Z,40.77
2018-12-29T07:57:22.781Z,44.10
2018-12-29T07:59:28.740Z,37.47
2018-12-29T08:01:34.473Z,43.93
2018-12-29T08:03:40.097Z,41.50
2018-12-29T08:05:46.168Z,42.63
2018-12-29T08:08:10.870Z,56.47
2018-12-29T08:10:16.609Z,42.07
2018-12-29T08:13:00.342Z,46.03
2018-12-29T08:15:06.325Z,39.63
2018-12-29T08:17:12.018Z,55.00
2018-12-29T08:19:17.889Z,43.47
2018-12-29T08:21:23.907Z,41.03
2018-12-29T08:23:30.264Z,50.93
2018-12-29T08:25:36.284Z,47.87
2018-12-29T08:27:42.520Z,52.60
2018-12-29T08:29:48.424Z,46.33
2018-12-29T08:32:13.207Z,50.93
2018-12-29T08:34:19.004Z,39.93
2018-12-29T08:36:24.852Z,41.53
2018-12-29T08:38:30.656Z,43.43
2018-12-29T08:40:55.200Z,45.23
2018-12-29T08:43:00.820Z,40.00
2018-12-29T08:45:06.521Z,43.00
2018-12-29T08:47:12.215Z,53.00
2018-12-29T08:49:18.442Z,40.63
2018-12-29T08:53:58.758Z,41.47
2018-12-29T08:56:04.443Z,44.67
2018-12-29T08:58:10.154Z,58.60
2018-12-29T09:00:15.965Z,48.80
2018-12-29T09:02:22.006Z,55.53
2018-12-29T09:04:27.651Z,50.87
2018-12-29T09:06:33.831Z,49.90
2018-12-29T09:08:39.581Z,44.47
2018-12-29T09:11:04.429Z,46.60
2018-12-29T09:13:10.429Z,40.67
2018-12-29T09:15:16.651Z,45.23
2018-12-29T09:17:23.026Z,53.77
2018-12-29T09:19:28.769Z,43.47
2018-12-29T09:21:34.611Z,57.73
2018-12-29T09:23:59.414Z,50.93
2018-12-29T09:26:05.441Z,53.20
2018-12-29T09:28:11.183Z,44.73
2018-12-29T09:30:17.354Z,38.50
2018-12-29T09:32:23.431Z,37.33
2018-12-29T09:34:29.137Z,40.27
2018-12-29T09:36:54.031Z,47.97
2018-12-29T09:39:00.125Z,56.60
2018-12-29T09:41:05.998Z,43.33
2018-12-29T09:43:11.733Z,42.90
2018-12-29T09:45:17.579Z,48.20
2018-12-29T09:47:24.438Z,50.17
2018-12-29T09:49:30.188Z,45.00
2018-12-29T09:51:36.012Z,45.47
2018-12-29T09:53:41.792Z,44.77
2018-12-29T09:55:47.419Z,44.90
2018-12-29T09:58:12.253Z,45.00
2018-12-29T10:02:52.400Z,51.00
2018-12-29T10:05:17.216Z,42.80
2018-12-29T10:09:53.057Z,43.03
2018-12-29T10:11:58.848Z,38.87
2018-12-29T10:14:26.511Z,45.60
2018-12-29T10:16:32.314Z,57.37
2018-12-29T10:18:38.229Z,40.10
2018-12-29T10:20:43.932Z,46.93
2018-12-29T10:22:50.026Z,54.33
2018-12-29T10:24:57.121Z,42.40
2018-12-29T10:27:03.201Z,45.07
2018-12-29T10:29:08.921Z,45.47
2018-12-29T10:31:33.628Z,42.10
2018-12-29T10:33:39.426Z,43.20
2018-12-29T10:35:45.077Z,58.80
2018-12-29T10:37:50.799Z,43.77
2018-12-29T10:39:56.462Z,45.57
2018-12-29T10:42:02.162Z,42.07
2018-12-29T10:44:08.221Z,43.97
2018-12-29T10:46:14.276Z,47.37
2018-12-29T10:48:19.944Z,43.23
2018-12-29T10:50:28.662Z,42.33
2018-12-29T10:52:34.302Z,47.97
2018-12-29T10:54:39.994Z,50.27
2018-12-29T10:56:45.612Z,38.83
2018-12-29T10:58:51.267Z,47.77
2018-12-29T11:00:57.208Z,48.93
2018-12-29T11:03:02.900Z,50.63
2018-12-29T11:05:09.423Z,59.93
2018-12-29T11:07:15.746Z,45.17
2018-12-29T11:09:21.573Z,54.13
2018-12-29T11:11:27.328Z,40.53
2018-12-29T11:13:33.026Z,56.13
2018-12-29T11:15:38.734Z,45.47
2018-12-29T11:17:46.348Z,41.53
2018-12-29T11:19:52.128Z,43.13
2018-12-29T11:21:58.122Z,37.70
2018-12-29T11:24:03.838Z,42.70
2018-12-29T11:26:09.793Z,35.20
2018-12-29T11:28:34.915Z,50.73
2018-12-29T11:30:41.010Z,38.30
2018-12-29T11:32:46.784Z,42.10
2018-12-29T11:34:52.554Z,41.37
2018-12-29T11:36:59.139Z,37.07
2018-12-29T11:39:06.636Z,39.70
2018-12-29T11:41:12.485Z,39.30
2018-12-29T11:43:18.157Z,43.03
2018-12-29T11:45:23.811Z,35.97
2018-12-29T11:47:50.019Z,39.47
2018-12-29T11:49:56.243Z,43.17
2018-12-29T11:52:03.457Z,39.63
2018-12-29T11:56:25.556Z,38.43
2018-12-29T11:58:33.134Z,39.10
2018-12-29T12:00:39.204Z,46.10
2018-12-29T12:02:44.992Z,41.07
2018-12-29T12:04:50.667Z,37.10
2018-12-29T12:06:56.402Z,41.63
2018-12-29T12:09:02.085Z,33.77
2018-12-29T12:11:10.974Z,33.33
2018-12-29T12:13:18.055Z,31.83
2018-12-29T12:15:23.743Z,34.03
2018-12-29T12:17:48.612Z,40.20
2018-12-29T12:19:54.658Z,35.80
2018-12-29T12:22:03.761Z,38.23
2018-12-29T12:24:09.786Z,38.83
2018-12-29T12:26:16.723Z,32.57
2018-12-29T12:28:22.947Z,37.47
2018-12-29T12:30:29.850Z,32.40
2018-12-29T12:32:56.212Z,34.23
2018-12-29T12:35:02.407Z,35.93
2018-12-29T12:37:08.205Z,33.43
2018-12-29T12:39:14.028Z,33.57
2018-12-29T12:41:19.856Z,36.20
2018-12-29T12:43:25.623Z,33.00
2018-12-29T12:45:31.694Z,30.87
2018-12-29T12:47:39.179Z,32.50
2018-12-29T12:49:45.225Z,31.40
2018-12-29T12:52:09.904Z,35.97
2018-12-29T12:54:15.962Z,31.70
2018-12-29T12:56:35.740Z,31.13
2018-12-29T12:58:48.249Z,31.73
2018-12-29T13:00:54.328Z,33.50
2018-12-29T13:03:02.779Z,32.07
2018-12-29T13:05:08.409Z,36.13
2018-12-29T13:07:14.383Z,31.33
2018-12-29T13:09:20.220Z,32.20
2018-12-29T13:11:25.837Z,33.57
2018-12-29T13:13:52.324Z,30.30
2018-12-29T13:16:01.655Z,31.23
2018-12-29T13:18:19.165Z,35.40
2018-12-29T13:20:24.880Z,33.20
2018-12-29T13:22:30.499Z,35.00
2018-12-29T13:24:36.418Z,34.10
2018-12-29T13:26:42.550Z,31.50
2018-12-29T13:28:48.678Z,31.77
2018-12-29T13:30:55.340Z,29.63
2018-12-29T13:33:01.027Z,26.67
2018-12-29T13:35:06.719Z,36.57
2018-12-29T13:39:42.240Z,28.83
2018-12-29T13:41:48.757Z,27.40
2018-12-29T13:43:54.399Z,31.10
2018-12-29T13:46:00.346Z,33.00
2018-12-29T13:48:06.239Z,27.90
2018-12-29T13:50:12.146Z,30.57
2018-12-29T13:52:17.919Z,33.73
2018-12-29T13:54:42.853Z,33.70
2018-12-29T13:56:48.654Z,36.03
2018-12-29T13:58:56.936Z,30.30
2018-12-29T14:01:03.148Z,26.20
2018-12-29T14:03:08.838Z,34.37
2018-12-29T14:05:14.602Z,32.43
2018-12-29T14:07:20.477Z,38.40
2018-12-29T14:09:26.758Z,33.23
2018-12-29T14:11:32.845Z,30.13
2018-12-29T14:13:38.534Z,28.50
2018-12-29T14:16:03.594Z,30.63
2018-12-29T14:18:09.695Z,29.43
2018-12-29T14:20:15.919Z,32.00
2018-12-29T14:22:21.689Z,25.50
2018-12-29T14:24:29.008Z,37.47
2018-12-29T14:26:55.770Z,33.50
2018-12-29T14:29:02.780Z,24.13
2018-12-29T14:31:08.607Z,24.23
2018-12-29T14:33:20.568Z,28.80
2018-12-29T14:35:26.766Z,26.43
2018-12-29T14:37:32.553Z,22.17
2018-12-29T14:39:58.105Z,18.70
2018-12-29T14:42:15.349Z,21.27
2018-12-29T14:44:23.329Z,23.97
2018-12-29T14:46:29.297Z,19.83
2018-12-29T14:48:36.325Z,20.17
2018-12-29T14:50:42.045Z,22.47
2018-12-29T14:52:47.803Z,19.70
2018-12-29T14:54:55.440Z,18.93
2018-12-29T14:57:01.216Z,25.87
2018-12-29T14:59:07.687Z,25.47
2018-12-29T15:01:14.484Z,18.53
2018-12-29T15:03:21.081Z,23.87
2018-12-29T15:05:26.817Z,28.27
2018-12-29T15:07:32.882Z,21.97
2018-12-29T15:09:38.853Z,24.37
2018-12-29T15:11:45.211Z,31.53
2018-12-29T15:13:51.595Z,21.93
2018-12-29T15:15:57.625Z,19.80
2018-12-29T15:18:03.397Z,15.60
2018-12-29T15:20:09.372Z,21.97
2018-12-29T15:22:15.307Z,14.37
2018-12-29T15:24:21.565Z,16.00
2018-12-29T15:26:27.615Z,17.20
2018-12-29T15:28:52.810Z,18.03
2018-12-29T15:30:58.551Z,16.27
2018-12-29T15:33:04.587Z,18.53
2018-12-29T15:35:10.416Z,17.40
2018-12-29T15:37:16.486Z,19.10
2018-12-29T15:39:22.126Z,16.60
2018-12-29T15:41:28.195Z,14.67
2018-12-29T15:43:34.254Z,18.67
2018-12-29T15:45:39.936Z,13.03
2018-12-29T15:47:45.950Z,19.73
2018-12-29T15:49:51.601Z,16.00
2018-12-29T15:52:16.724Z,18.80
2018-12-29T15:54:22.789Z,14.77
2018-12-29T15:56:28.477Z,18.03
2018-12-29T15:58:34.907Z,23.13
2018-12-29T16:00:41.294Z,16.97
2018-12-29T16:03:06.097Z,13.13
2018-12-29T16:05:14.872Z,21.10
2018-12-29T16:07:20.812Z,20.37
2018-12-29T16:09:28.677Z,17.73
2018-12-29T16:11:34.986Z,23.00
2018-12-29T16:13:59.704Z,19.87
2018-12-29T16:16:05.510Z,22.53
2018-12-29T16:18:12.371Z,18.30
2018-12-29T16:20:18.085Z,16.70
2018-12-29T16:22:43.100Z,24.13
2018-12-29T16:24:48.972Z,16.77
2018-12-29T16:26:55.117Z,25.27
2018-12-29T16:29:01.295Z,17.97
2018-12-29T16:31:26.395Z,18.40
2018-12-29T16:33:32.912Z,22.40
2018-12-29T16:35:42.843Z,16.43
2018-12-29T16:37:48.689Z,18.00
2018-12-29T16:40:13.350Z,12.73
2018-12-29T16:42:19.265Z,20.83
2018-12-29T16:44:25.164Z,17.70
2018-12-29T16:46:50.269Z,17.77
2018-12-29T16:48:56.429Z,20.60
2018-12-29T16:51:02.221Z,19.53
2018-12-29T16:53:08.120Z,14.67
2018-12-29T16:55:35.282Z,13.70
2018-12-29T16:57:42.249Z,11.97
2018-12-29T16:59:48.255Z,20.40
2018-12-29T17:01:54.319Z,15.87
2018-12-29T17:04:00.310Z,12.30
2018-12-29T17:06:27.022Z,18.60
2018-12-29T17:08:34.831Z,13.10
2018-12-29T17:10:42.592Z,17.40
2018-12-29T17:12:48.365Z,13.17
2018-12-29T17:14:54.200Z,20.27
2018-12-29T17:17:00.002Z,20.03
2018-12-29T17:19:05.907Z,21.10
2018-12-29T17:21:11.742Z,14.60
2018-12-29T17:23:17.455Z,18.53
2018-12-29T17:25:23.442Z,19.50
2018-12-29T17:27:29.244Z,17.03
2018-12-29T17:29:36.324Z,21.50
2018-12-29T17:31:44.076Z,18.13
2018-12-29T17:33:49.854Z,18.40
2018-12-29T17:35:56.035Z,15.83
2018-12-29T17:38:05.395Z,18.60
2018-12-29T17:40:13.008Z,18.83
2018-12-29T17:42:40.314Z,19.13
2018-12-29T17:44:46.934Z,18.40
2018-12-29T17:46:53.685Z,25.93
2018-12-29T17:49:00.101Z,16.20
2018-12-29T17:51:05.818Z,24.47
2018-12-29T17:53:12.078Z,19.40
2018-12-29T17:55:17.710Z,18.80
2018-12-29T17:57:43.392Z,14.13
2018-12-29T17:59:49.462Z,12.97
2018-12-29T18:01:55.407Z,16.07
2018-12-29T18:04:04.661Z,16.00
2018-12-29T18:06:11.468Z,32.20
2018-12-29T18:08:17.445Z,23.90
2018-12-29T18:10:23.320Z,29.93
2018-12-29T18:12:29.372Z,22.63
2018-12-29T18:14:35.269Z,21.77
2018-12-29T18:17:00.176Z,19.33
2018-12-29T18:19:06.453Z,23.07
2018-12-29T18:21:12.306Z,24.57
2018-12-29T18:23:18.257Z,25.77
2018-12-29T18:25:24.592Z,24.00
2018-12-29T18:27:50.051Z,26.93
2018-12-29T18:29:58.166Z,22.57
2018-12-29T18:32:16.311Z,19.07
2018-12-29T18:34:22.224Z,21.70
2018-12-29T18:36:28.314Z,26.37
2018-12-29T18:38:41.951Z,21.83
2018-12-29T18:40:49.524Z,23.77
2018-12-29T18:42:55.880Z,28.57
2018-12-29T18:45:03.433Z,24.33
2018-12-29T18:47:13.041Z,29.10
2018-12-29T18:49:38.905Z,24.67
2018-12-29T18:51:44.942Z,19.47
2018-12-29T18:54:11.507Z,24.47
2018-12-29T18:56:18.901Z,29.00
2018-12-29T18:58:25.914Z,34.57
2018-12-29T19:00:51.486Z,29.67
2018-12-29T19:03:19.685Z,28.47
2018-12-29T19:05:27.640Z,34.37
2018-12-29T19:07:33.364Z,31.37
2018-12-29T19:09:39.363Z,33.83
2018-12-29T19:11:46.554Z,40.23
2018-12-29T19:13:53.886Z,43.57
2018-12-29T19:16:00.142Z,32.00
2018-12-29T19:18:06.432Z,25.97
2018-12-29T19:20:12.558Z,31.90
2018-12-29T19:22:18.257Z,31.07
2018-12-29T19:24:23.905Z,36.57
2018-12-29T19:26:48.618Z,39.07
2018-12-29T19:29:08.042Z,36.47
2018-12-29T19:31:14.348Z,34.20
2018-12-29T19:33:20.790Z,36.83
2018-12-29T19:35:27.046Z,39.13
2018-12-29T19:37:51.958Z,41.60
2018-12-29T19:40:09.088Z,40.30
2018-12-29T19:42:15.164Z,38.37
2018-12-29T19:44:22.739Z,26.90
2018-12-29T19:46:28.766Z,50.13
2018-12-29T19:48:53.519Z,41.53
2018-12-29T19:51:00.504Z,42.77
2018-12-29T19:53:26.003Z,35.90
2018-12-29T19:55:32.132Z,32.10
2018-12-29T19:57:38.697Z,36.37
2018-12-29T19:59:44.805Z,33.27
2018-12-29T20:01:50.980Z,53.27
2018-12-29T20:03:57.825Z,43.37
2018-12-29T20:06:10.997Z,44.07
2018-12-29T20:10:49.477Z,49.90
2018-12-29T20:12:55.225Z,38.33
2018-12-29T20:15:01.050Z,37.10
2018-12-29T20:17:08.730Z,28.67
2018-12-29T20:19:17.693Z,50.47
2018-12-29T20:21:43.208Z,35.03
2018-12-29T20:23:50.123Z,34.60
2018-12-29T20:25:56.432Z,39.70
2018-12-29T20:28:21.378Z,54.27
2018-12-29T20:30:27.911Z,39.00
2018-12-29T20:32:35.780Z,38.47
2018-12-29T20:34:47.342Z,27.77
2018-12-29T20:36:57.878Z,44.90
2018-12-29T20:39:25.173Z,51.20
2018-12-29T20:41:33.321Z,42.47
2018-12-29T20:43:41.044Z,48.13
2018-12-29T20:46:06.282Z,25.03
2018-12-29T20:48:24.846Z,37.47
2018-12-29T20:50:31.276Z,40.13
2018-12-29T20:52:37.681Z,45.43
2018-12-29T20:55:07.804Z,48.17
2018-12-29T21:04:40.529Z,25.53
2018-12-29T21:06:47.921Z,29.67
2018-12-29T21:11:52.614Z,22.40
2018-12-29T21:14:03.671Z,25.57
2018-12-29T21:16:30.398Z,36.47
2018-12-29T21:18:37.730Z,22.63
2018-12-29T21:21:03.219Z,20.30
2018-12-29T21:23:10.739Z,24.90
2018-12-29T21:25:18.163Z,20.43
2018-12-29T21:27:30.967Z,34.30
2018-12-29T21:29:56.525Z,13.73
2018-12-29T21:32:26.349Z,26.93
2018-12-29T21:34:20.036Z,17.50
2018-12-29T21:36:26.360Z,12.37
2018-12-29T21:38:34.684Z,17.57
2018-12-29T21:40:41.623Z,20.43
2018-12-29T21:42:49.629Z,24.37
2018-12-29T21:45:16.602Z,14.60
2018-12-29T21:47:24.745Z,13.87
2018-12-29T21:50:08.965Z,10.83
2018-12-29T21:52:16.466Z,11.10
2018-12-29T21:54:23.454Z,17.63
2018-12-29T21:57:10.227Z,11.13
2018-12-29T21:59:16.694Z,9.70
2018-12-29T22:01:23.463Z,27.33
2018-12-29T22:03:30.173Z,10.53
2018-12-29T22:05:36.225Z,8.47
2018-12-29T22:07:42.000Z,9.83
2018-12-29T22:09:47.728Z,8.50
2018-12-29T22:11:53.971Z,15.10
2018-12-29T22:14:06.679Z,19.53
2018-12-29T22:16:13.855Z,14.00
2018-12-29T22:18:20.681Z,13.67
2018-12-29T22:20:33.246Z,8.17
2018-12-29T22:22:53.239Z,14.67
2018-12-29T22:25:06.483Z,18.53
2018-12-29T22:27:13.310Z,19.83
2018-12-29T22:29:20.989Z,15.57
2018-12-29T22:31:28.095Z,13.13
2018-12-29T22:33:33.937Z,17.40
2018-12-29T22:35:59.177Z,4.03
2018-12-29T22:38:24.444Z,9.00
2018-12-29T22:40:31.895Z,17.23
2018-12-29T22:42:37.906Z,9.93
2018-12-29T22:47:24.683Z,13.77
2018-12-29T22:49:32.567Z,27.20
2018-12-29T22:51:39.374Z,25.03
2018-12-29T22:53:45.051Z,13.73
2018-12-29T22:55:56.349Z,10.20
2018-12-29T22:58:08.586Z,17.50
2018-12-29T23:00:21.665Z,11.73
2018-12-29T23:02:27.976Z,14.93
2018-12-29T23:04:52.192Z,18.80
2018-12-29T23:06:58.476Z,19.77
2018-12-29T23:09:09.574Z,19.07
2018-12-29T23:11:15.474Z,24.07
2018-12-29T23:13:21.193Z,11.47
2018-12-29T23:15:27.371Z,7.60
2018-12-29T23:17:33.935Z,15.57
2018-12-29T23:19:39.555Z,19.47
2018-12-29T23:21:45.640Z,9.47
2018-12-29T23:23:53.348Z,11.10
2018-12-29T23:25:59.686Z,10.07
2018-12-29T23:28:06.541Z,6.63
2018-12-29T23:30:12.306Z,12.83
2018-12-29T23:32:20.990Z,8.87
2018-12-29T23:34:26.614Z,10.90
2018-12-29T23:36:32.571Z,13.97
2018-12-29T23:38:38.387Z,20.63
2018-12-29T23:41:03.101Z,21.70
2018-12-29T23:43:08.700Z,9.60
2018-12-29T23:47:49.231Z,12.10
2018-12-29T23:49:55.374Z,7.93
2018-12-29T23:52:21.945Z,16.90
2018-12-29T23:54:31.212Z,15.40
2018-12-29T23:56:37.095Z,16.13
